Somersworth, New Hampshire
Current Conditions -  °F | °C
As of 11:51 PM on Saturday 22 Nov 2014 (Local Time) from KDAW Reporting Station
Scattered Clouds Scattered Clouds  
Wind Chill: 37°   Ceiling: Unl
Heat Index: 37°   Visibility: 10mi
Dew Point: 15°   Wind: 0mph
Humidity: 41%   Direction: NA
Pressure: 30"   Gusts: NA
Location:  43.26°N, 70.86°W
Report Text: KDAW 230451Z AUTO 00000KT 10SM SCT033 03/M09 A3000 RMK AO2 SLP158 T00281094 400391072
Loading
Personal Weather Stations






























Interactive Weather Map New forecast layout! Learn more

10-Day Weather Forecast

Advertisements
Track Severe Weather on mobile